Wetterdaten: Montag, 15.03.2010
Datum Zeit Temp. A. Feuchte A. Luftdruck Regen Wind Richtung Richtung Sonnenschein UV Solar Windben
15.03.2010 00:00 2,6 C 78 % 1020,4 hPa 0,0 mm 6,4 km/h (2 Bft) W-NW 292 0 min 0 UV-I 0 W/m 17,7 km/h (3 Bft)
15.03.2010 00:10 2,4 C 78 % 1020,4 hPa 0,0 mm 3,2 km/h (1 Bft) W-NW 292 0 min 0 UV-I 0 W/m 16,1 km/h (3 Bft)
15.03.2010 00:20 2,3 C 78 % 1020,4 hPa 0,0 mm 3,2 km/h (1 Bft) W-NW 292 0 min 0 UV-I 0 W/m 11,3 km/h (2 Bft)
15.03.2010 00:30 2,2 C 78 % 1020,6 hPa 0,0 mm 1,6 km/h (1 Bft) W-NW 292 0 min 0 UV-I 0 W/m 9,7 km/h (2 Bft)
15.03.2010 00:40 2,1 C 78 % 1020,7 hPa 0,0 mm 1,6 km/h (1 Bft) W-NW 292 0 min 0 UV-I 0 W/m 9,7 km/h (2 Bft)
15.03.2010 00:50 2,1 C 79 % 1020,7 hPa 0,0 mm 3,2 km/h (1 Bft) W-NW 292 0 min 0 UV-I 0 W/m 14,5 km/h (3 Bft)
15.03.2010 01:00 2,0 C 80 % 1020,7 hPa 0,0 mm 3,2 km/h (1 Bft) W 270 0 min 0 UV-I 0 W/m 14,5 km/h (3 Bft)
15.03.2010 01:10 2,0 C 81 % 1020,7 hPa 0,0 mm 3,2 km/h (1 Bft) W 270 0 min 0 UV-I 0 W/m 8,0 km/h (2 Bft)
15.03.2010 01:20 2,0 C 82 % 1020,8 hPa 0,0 mm 4,8 km/h (1 Bft) W 270 0 min 0 UV-I 0 W/m 11,3 km/h (2 Bft)
15.03.2010 01:30 2,0 C 82 % 1020,8 hPa 0,0 mm 4,8 km/h (1 Bft) W 270 0 min 0 UV-I 0 W/m 17,7 km/h (3 Bft)
15.03.2010 01:40 2,0 C 82 % 1020,9 hPa 0,0 mm 6,4 km/h (2 Bft) W 270 0 min 0 UV-I 0 W/m 17,7 km/h (3 Bft)
15.03.2010 01:50 1,9 C 82 % 1021,0 hPa 0,0 mm 3,2 km/h (1 Bft) W 270 0 min 0 UV-I 0 W/m 11,3 km/h (2 Bft)
15.03.2010 02:00 1,8 C 82 % 1021,1 hPa 0,0 mm 3,2 km/h (1 Bft) W 270 0 min 0 UV-I 0 W/m 14,5 km/h (3 Bft)
15.03.2010 02:10 1,8 C 82 % 1021,0 hPa 0,0 mm 3,2 km/h (1 Bft) W 270 0 min 0 UV-I 0 W/m 14,5 km/h (3 Bft)
15.03.2010 02:20 1,8 C 83 % 1020,8 hPa 0,0 mm 4,8 km/h (1 Bft) W 270 0 min 0 UV-I 0 W/m 14,5 km/h (3 Bft)
15.03.2010 02:30 1,7 C 83 % 1020,9 hPa 0,0 mm 4,8 km/h (1 Bft) W-SW 247 0 min 0 UV-I 0 W/m 12,9 km/h (3 Bft)
15.03.2010 02:40 1,7 C 83 % 1021,0 hPa 0,0 mm 4,8 km/h (1 Bft) W 270 0 min 0 UV-I 0 W/m 14,5 km/h (3 Bft)
15.03.2010 02:50 1,8 C 84 % 1020,9 hPa 0,0 mm 4,8 km/h (1 Bft) W 270 0 min 0 UV-I 0 W/m 11,3 km/h (2 Bft)
15.03.2010 03:00 1,8 C 84 % 1020,9 hPa 0,0 mm 6,4 km/h (2 Bft) W 270 0 min 0 UV-I 0 W/m 16,1 km/h (3 Bft)
15.03.2010 03:10 1,8 C 84 % 1020,8 hPa 0,0 mm 3,2 km/h (1 Bft) W 270 0 min 0 UV-I 0 W/m 14,5 km/h (3 Bft)
15.03.2010 03:20 1,8 C 85 % 1020,8 hPa 0,0 mm 3,2 km/h (1 Bft) W 270 0 min 0 UV-I 0 W/m 16,1 km/h (3 Bft)
15.03.2010 03:30 1,8 C 85 % 1020,7 hPa 0,0 mm 3,2 km/h (1 Bft) SW 225 0 min 0 UV-I 0 W/m 12,9 km/h (3 Bft)
15.03.2010 03:40 1,8 C 85 % 1020,7 hPa 0,0 mm 4,8 km/h (1 Bft) W 270 0 min 0 UV-I 0 W/m 14,5 km/h (3 Bft)
15.03.2010 03:50 1,8 C 86 % 1020,8 hPa 0,0 mm 4,8 km/h (1 Bft) W 270 0 min 0 UV-I 0 W/m 14,5 km/h (3 Bft)
15.03.2010 04:00 1,8 C 86 % 1020,7 hPa 0,0 mm 4,8 km/h (1 Bft) W 270 0 min 0 UV-I 0 W/m 16,1 km/h (3 Bft)
15.03.2010 04:10 1,9 C 86 % 1020,8 hPa 0,0 mm 4,8 km/h (1 Bft) W 270 0 min 0 UV-I 0 W/m 11,3 km/h (2 Bft)
15.03.2010 04:20 1,9 C 87 % 1020,9 hPa 0,0 mm 4,8 km/h (1 Bft) W 270 0 min 0 UV-I 0 W/m 16,1 km/h (3 Bft)
15.03.2010 04:30 1,9 C 87 % 1020,9 hPa 0,0 mm 4,8 km/h (1 Bft) W 270 0 min 0 UV-I 0 W/m 11,3 km/h (2 Bft)
15.03.2010 04:40 1,9 C 87 % 1020,9 hPa 0,0 mm 4,8 km/h (1 Bft) W 270 0 min 0 UV-I 0 W/m 9,7 km/h (2 Bft)
15.03.2010 04:50 1,9 C 88 % 1020,9 hPa 0,0 mm 4,8 km/h (1 Bft) W 270 0 min 0 UV-I 0 W/m 12,9 km/h (3 Bft)
15.03.2010 05:00 1,9 C 88 % 1020,8 hPa 0,0 mm 4,8 km/h (1 Bft) W 270 0 min 0 UV-I 0 W/m 12,9 km/h (3 Bft)
15.03.2010 05:10 2,0 C 88 % 1020,9 hPa 0,0 mm 4,8 km/h (1 Bft) W 270 0 min 0 UV-I 0 W/m 11,3 km/h (2 Bft)
15.03.2010 05:20 2,1 C 88 % 1020,8 hPa 0,0 mm 6,4 km/h (2 Bft) W 270 0 min 0 UV-I 0 W/m 19,3 km/h (3 Bft)
15.03.2010 05:30 2,1 C 88 % 1020,9 hPa 0,0 mm 8,0 km/h (2 Bft) W 270 0 min 0 UV-I 0 W/m 22,5 km/h (4 Bft)
15.03.2010 05:40 2,2 C 88 % 1020,9 hPa 0,0 mm 6,4 km/h (2 Bft) W 270 0 min 0 UV-I 0 W/m 17,7 km/h (3 Bft)
15.03.2010 05:50 2,2 C 88 % 1021,0 hPa 0,0 mm 4,8 km/h (1 Bft) W 270 0 min 0 UV-I 0 W/m 16,1 km/h (3 Bft)
15.03.2010 06:00 2,2 C 88 % 1020,9 hPa 0,0 mm 4,8 km/h (1 Bft) W 270 0 min 0 UV-I 0 W/m 19,3 km/h (3 Bft)
15.03.2010 06:10 2,2 C 88 % 1021,1 hPa 0,3 mm 4,8 km/h (1 Bft) W 270 0 min 0 UV-I 0 W/m 20,9 km/h (4 Bft)
15.03.2010 06:20 2,2 C 88 % 1021,0 hPa 0,0 mm 6,4 km/h (2 Bft) W 270 0 min 0 UV-I 0 W/m 14,5 km/h (3 Bft)
15.03.2010 06:30 2,2 C 88 % 1021,0 hPa 0,0 mm 6,4 km/h (2 Bft) W 270 0 min 0 UV-I 0 W/m 17,7 km/h (3 Bft)
15.03.2010 06:40 2,2 C 88 % 1021,0 hPa 0,0 mm 4,8 km/h (1 Bft) W 270 0 min 0 UV-I 0 W/m 17,7 km/h (3 Bft)
15.03.2010 06:50 2,2 C 88 % 1021,0 hPa 0,0 mm 6,4 km/h (2 Bft) W 270 0 min 0 UV-I 0 W/m 20,9 km/h (4 Bft)
15.03.2010 07:00 2,2 C 88 % 1021,1 hPa 0,0 mm 6,4 km/h (2 Bft) W 270 0 min 0 UV-I 5 W/m 19,3 km/h (3 Bft)
15.03.2010 07:10 2,2 C 87 % 1021,1 hPa 0,0 mm 8,0 km/h (2 Bft) W 270 0 min 0 UV-I 12 W/m 22,5 km/h (4 Bft)
15.03.2010 07:20 2,2 C 87 % 1021,4 hPa 0,0 mm 6,4 km/h (2 Bft) W 270 0 min 0 UV-I 16 W/m 19,3 km/h (3 Bft)
15.03.2010 07:30 2,2 C 87 % 1021,5 hPa 0,0 mm 8,0 km/h (2 Bft) W 270 0 min 0 UV-I 26 W/m 22,5 km/h (4 Bft)
15.03.2010 07:40 2,2 C 86 % 1021,5 hPa 0,0 mm 4,8 km/h (1 Bft) W 270 0 min 0 UV-I 69 W/m 14,5 km/h (3 Bft)
15.03.2010 07:50 2,2 C 86 % 1021,6 hPa 0,0 mm 6,4 km/h (2 Bft) W 270 10 min 0 UV-I 134 W/m 16,1 km/h (3 Bft)
15.03.2010 08:00 2,3 C 86 % 1021,6 hPa 0,0 mm 2,1 km/h (1 Bft) W 278 0 min 0 UV-I 68 W/m 4,8 km/h (1 Bft)
15.03.2010 08:10 2,3 C 86 % 1021,6 hPa 0,0 mm 4,8 km/h (1 Bft) W 270 10 min 0 UV-I 134 W/m 17,7 km/h (3 Bft)
15.03.2010 08:20 2,4 C 85 % 1021,7 hPa 0,0 mm 6,4 km/h (2 Bft) W 270 0 min 0 UV-I 135 W/m 16,1 km/h (3 Bft)
15.03.2010 08:30 2,5 C 85 % 1021,7 hPa 0,0 mm 6,4 km/h (2 Bft) W 270 0 min 0 UV-I 127 W/m 14,5 km/h (3 Bft)
15.03.2010 08:40 2,6 C 85 % 1021,7 hPa 0,0 mm 6,4 km/h (2 Bft) W 270 0 min 1 UV-I 134 W/m 17,7 km/h (3 Bft)
15.03.2010 08:50 2,7 C 84 % 1021,7 hPa 0,0 mm 4,8 km/h (1 Bft) W 270 0 min 1 UV-I 134 W/m 14,5 km/h (3 Bft)
15.03.2010 09:00 2,7 C 84 % 1021,7 hPa 0,0 mm 4,8 km/h (1 Bft) W 270 10 min 1 UV-I 325 W/m 14,5 km/h (3 Bft)
15.03.2010 09:10 3,1 C 82 % 1021,7 hPa 0,0 mm 4,8 km/h (1 Bft) W-SW 247 10 min 1 UV-I 383 W/m 14,5 km/h (3 Bft)
15.03.2010 09:20 3,7 C 79 % 1021,6 hPa 0,0 mm 4,8 km/h (1 Bft) W 270 10 min 1 UV-I 404 W/m 17,7 km/h (3 Bft)
15.03.2010 09:30 4,1 C 75 % 1021,4 hPa 0,0 mm 8,0 km/h (2 Bft) W 270 10 min 1 UV-I 418 W/m 19,3 km/h (3 Bft)
15.03.2010 09:40 4,3 C 75 % 1021,4 hPa 0,0 mm 8,0 km/h (2 Bft) W 270 10 min 1 UV-I 476 W/m 22,5 km/h (4 Bft)
15.03.2010 09:50 4,6 C 73 % 1021,2 hPa 0,0 mm 6,4 km/h (2 Bft) W 270 10 min 2 UV-I 401 W/m 22,5 km/h (4 Bft)
15.03.2010 10:00 4,7 C 72 % 1021,3 hPa 0,0 mm 8,0 km/h (2 Bft) W 270 10 min 2 UV-I 487 W/m 22,5 km/h (4 Bft)
15.03.2010 10:10 4,9 C 71 % 1021,3 hPa 0,0 mm 6,4 km/h (2 Bft) W 270 10 min 2 UV-I 568 W/m 24,1 km/h (4 Bft)
15.03.2010 10:20 5,3 C 70 % 1021,4 hPa 0,0 mm 8,0 km/h (2 Bft) W 270 10 min 2 UV-I 515 W/m 25,7 km/h (4 Bft)
15.03.2010 10:30 5,1 C 72 % 1021,2 hPa 0,0 mm 9,7 km/h (2 Bft) W 270 10 min 1 UV-I 294 W/m 22,5 km/h (4 Bft)
15.03.2010 10:40 5,0 C 71 % 1021,4 hPa 0,0 mm 6,4 km/h (2 Bft) W-NW 292 10 min 1 UV-I 287 W/m 20,9 km/h (4 Bft)
15.03.2010 10:50 4,9 C 70 % 1021,3 hPa 0,0 mm 8,0 km/h (2 Bft) W 270 0 min 1 UV-I 192 W/m 24,1 km/h (4 Bft)
15.03.2010 11:00 4,8 C 72 % 1021,3 hPa 0,0 mm 4,8 km/h (1 Bft) W 270 0 min 1 UV-I 209 W/m 16,1 km/h (3 Bft)
15.03.2010 11:10 4,9 C 70 % 1021,3 hPa 0,0 mm 9,7 km/h (2 Bft) W 270 0 min 1 UV-I 209 W/m 27,4 km/h (4 Bft)
15.03.2010 11:20 4,8 C 72 % 1021,1 hPa 0,0 mm 9,7 km/h (2 Bft) W 270 0 min 1 UV-I 172 W/m 22,5 km/h (4 Bft)
15.03.2010 11:30 4,8 C 74 % 1020,9 hPa 0,0 mm 8,0 km/h (2 Bft) W 270 0 min 2 UV-I 309 W/m 22,5 km/h (4 Bft)
15.03.2010 11:40 5,1 C 74 % 1020,8 hPa 0,0 mm 6,4 km/h (2 Bft) W-SW 247 10 min 2 UV-I 329 W/m 20,9 km/h (4 Bft)
15.03.2010 11:50 5,1 C 74 % 1020,8 hPa 0,0 mm 8,0 km/h (2 Bft) W-SW 247 0 min 1 UV-I 290 W/m 20,9 km/h (4 Bft)
15.03.2010 12:00 5,3 C 73 % 1020,6 hPa 0,0 mm 8,0 km/h (2 Bft) W 270 0 min 1 UV-I 237 W/m 20,9 km/h (4 Bft)
15.03.2010 12:10 5,2 C 76 % 1020,7 hPa 0,0 mm 8,0 km/h (2 Bft) SW 225 0 min 1 UV-I 163 W/m 22,5 km/h (4 Bft)
15.03.2010 12:20 5,0 C 78 % 1020,6 hPa 0,0 mm 8,0 km/h (2 Bft) W-SW 247 0 min 1 UV-I 141 W/m 24,1 km/h (4 Bft)
15.03.2010 12:30 4,8 C 80 % 1020,6 hPa 0,0 mm 9,7 km/h (2 Bft) W-SW 247 0 min 1 UV-I 139 W/m 24,1 km/h (4 Bft)
15.03.2010 12:40 4,6 C 82 % 1020,4 hPa 0,0 mm 8,0 km/h (2 Bft) W-SW 247 0 min 1 UV-I 158 W/m 22,5 km/h (4 Bft)
15.03.2010 12:50 4,7 C 84 % 1020,3 hPa 0,0 mm 3,2 km/h (1 Bft) W-SW 247 0 min 1 UV-I 111 W/m 11,3 km/h (2 Bft)
15.03.2010 13:00 4,7 C 84 % 1020,0 hPa 0,0 mm 6,4 km/h (2 Bft) W-SW 247 0 min 1 UV-I 98 W/m 20,9 km/h (4 Bft)
15.03.2010 13:10 4,6 C 86 % 1019,7 hPa 0,0 mm 4,8 km/h (1 Bft) W-SW 247 0 min 1 UV-I 100 W/m 17,7 km/h (3 Bft)
15.03.2010 13:20 4,6 C 86 % 1019,5 hPa 0,0 mm 4,8 km/h (1 Bft) W-SW 247 0 min 1 UV-I 118 W/m 16,1 km/h (3 Bft)
15.03.2010 13:30 4,6 C 86 % 1019,2 hPa 0,3 mm 6,4 km/h (2 Bft) W-SW 247 0 min 1 UV-I 97 W/m 19,3 km/h (3 Bft)
15.03.2010 13:40 4,7 C 87 % 1019,0 hPa 0,0 mm 6,4 km/h (2 Bft) SW 225 0 min 1 UV-I 90 W/m 24,1 km/h (4 Bft)
15.03.2010 13:50 4,7 C 87 % 1018,8 hPa 0,0 mm 6,4 km/h (2 Bft) W-SW 247 0 min 1 UV-I 81 W/m 19,3 km/h (3 Bft)
15.03.2010 14:00 4,7 C 88 % 1018,6 hPa 0,3 mm 4,8 km/h (1 Bft) W-SW 247 0 min 0 UV-I 62 W/m 16,1 km/h (3 Bft)
15.03.2010 14:10 4,7 C 89 % 1018,4 hPa 0,3 mm 4,8 km/h (1 Bft) W-SW 247 0 min 0 UV-I 58 W/m 12,9 km/h (3 Bft)
15.03.2010 14:20 4,8 C 89 % 1018,2 hPa 0,0 mm 6,4 km/h (2 Bft) W-SW 247 0 min 0 UV-I 54 W/m 19,3 km/h (3 Bft)
15.03.2010 14:30 4,9 C 90 % 1018,0 hPa 0,0 mm 8,0 km/h (2 Bft) W-SW 247 0 min 1 UV-I 98 W/m 19,3 km/h (3 Bft)
15.03.2010 14:40 5,2 C 90 % 1017,7 hPa 0,3 mm 6,4 km/h (2 Bft) SW 225 0 min 1 UV-I 142 W/m 17,7 km/h (3 Bft)
15.03.2010 14:50 5,4 C 91 % 1017,6 hPa 0,0 mm 8,0 km/h (2 Bft) W-SW 247 0 min 1 UV-I 144 W/m 19,3 km/h (3 Bft)
15.03.2010 15:00 5,7 C 91 % 1017,4 hPa 0,0 mm 6,4 km/h (2 Bft) W 270 0 min 1 UV-I 167 W/m 19,3 km/h (3 Bft)
15.03.2010 15:10 5,9 C 90 % 1017,2 hPa 0,0 mm 8,0 km/h (2 Bft) W-SW 247 0 min 1 UV-I 98 W/m 24,1 km/h (4 Bft)
15.03.2010 15:20 6,1 C 90 % 1017,1 hPa 0,3 mm 11,3 km/h (2 Bft) W-SW 247 0 min 1 UV-I 81 W/m 22,5 km/h (4 Bft)
15.03.2010 15:30 6,1 C 90 % 1017,0 hPa 0,0 mm 11,3 km/h (2 Bft) W 270 0 min 0 UV-I 49 W/m 35,4 km/h (5 Bft)
15.03.2010 15:40 6,2 C 90 % 1017,0 hPa 0,3 mm 11,3 km/h (2 Bft) W-SW 247 0 min 1 UV-I 95 W/m 27,4 km/h (4 Bft)
15.03.2010 15:50 6,3 C 90 % 1016,9 hPa 0,0 mm 9,7 km/h (2 Bft) W-SW 247 0 min 1 UV-I 130 W/m 22,5 km/h (4 Bft)
15.03.2010 16:00 6,4 C 90 % 1016,8 hPa 0,0 mm 14,3 km/h (3 Bft) W-SW 245 0 min 0 UV-I 35 W/m 24,1 km/h (4 Bft)
15.03.2010 16:10 6,4 C 90 % 1016,7 hPa 0,3 mm 9,7 km/h (2 Bft) W-SW 247 0 min 0 UV-I 60 W/m 27,4 km/h (4 Bft)
15.03.2010 16:20 6,4 C 90 % 1016,5 hPa 0,3 mm 9,7 km/h (2 Bft) W-SW 247 0 min 0 UV-I 53 W/m 24,1 km/h (4 Bft)
15.03.2010 16:30 6,4 C 90 % 1016,3 hPa 0,0 mm 8,0 km/h (2 Bft) W 270 0 min 0 UV-I 56 W/m 22,5 km/h (4 Bft)
15.03.2010 16:40 6,4 C 90 % 1016,4 hPa 0,0 mm 6,4 km/h (2 Bft) W 270 0 min 0 UV-I 40 W/m 20,9 km/h (4 Bft)
15.03.2010 16:50 6,4 C 90 % 1016,2 hPa 0,3 mm 8,0 km/h (2 Bft) W 270 0 min 0 UV-I 62 W/m 17,7 km/h (3 Bft)
15.03.2010 17:00 6,4 C 90 % 1016,2 hPa 0,0 mm 9,7 km/h (2 Bft) W 270 0 min 0 UV-I 60 W/m 22,5 km/h (4 Bft)
15.03.2010 17:10 6,4 C 90 % 1016,2 hPa 0,0 mm 9,7 km/h (2 Bft) W 270 0 min 0 UV-I 23 W/m 25,7 km/h (4 Bft)
15.03.2010 17:20 6,4 C 89 % 1016,2 hPa 0,0 mm 11,3 km/h (2 Bft) W 270 0 min 0 UV-I 18 W/m 25,7 km/h (4 Bft)
15.03.2010 17:30 6,4 C 89 % 1016,2 hPa 0,0 mm 11,3 km/h (2 Bft) W 270 0 min 0 UV-I 12 W/m 24,1 km/h (4 Bft)
15.03.2010 17:40 6,3 C 89 % 1016,2 hPa 0,3 mm 8,0 km/h (2 Bft) W 270 0 min 0 UV-I 11 W/m 27,4 km/h (4 Bft)
15.03.2010 17:50 6,3 C 89 % 1016,0 hPa 0,0 mm 8,0 km/h (2 Bft) W 270 0 min 0 UV-I 9 W/m 24,1 km/h (4 Bft)
15.03.2010 18:00 6,3 C 89 % 1016,1 hPa 0,3 mm 11,3 km/h (2 Bft) W 270 0 min 0 UV-I 0 W/m 30,6 km/h (5 Bft)
15.03.2010 18:10 6,2 C 89 % 1016,2 hPa 0,3 mm 9,7 km/h (2 Bft) W 270 0 min 0 UV-I 0 W/m 24,1 km/h (4 Bft)
15.03.2010 18:20 6,1 C 89 % 1016,3 hPa 0,0 mm 9,7 km/h (2 Bft) W 270 0 min 0 UV-I 0 W/m 27,4 km/h (4 Bft)
15.03.2010 18:30 6,1 C 89 % 1016,4 hPa 0,0 mm 8,0 km/h (2 Bft) W-NW 292 0 min 0 UV-I 0 W/m 24,1 km/h (4 Bft)
15.03.2010 18:40 6,0 C 90 % 1016,4 hPa 0,0 mm 6,4 km/h (2 Bft) W 270 0 min 0 UV-I 0 W/m 20,9 km/h (4 Bft)
15.03.2010 18:50 5,9 C 90 % 1016,5 hPa 0,3 mm 6,4 km/h (2 Bft) W 270 0 min 0 UV-I 0 W/m 19,3 km/h (3 Bft)
15.03.2010 19:00 5,8 C 90 % 1016,5 hPa 0,0 mm 9,7 km/h (2 Bft) W 270 0 min 0 UV-I 0 W/m 22,5 km/h (4 Bft)
15.03.2010 19:10 5,7 C 90 % 1016,5 hPa 0,0 mm 6,4 km/h (2 Bft) W 270 0 min 0 UV-I 0 W/m 19,3 km/h (3 Bft)
15.03.2010 19:20 5,6 C 90 % 1016,5 hPa 0,3 mm 8,0 km/h (2 Bft) W-SW 247 0 min 0 UV-I 0 W/m 19,3 km/h (3 Bft)
15.03.2010 19:30 5,5 C 91 % 1016,5 hPa 0,3 mm 8,0 km/h (2 Bft) W 270 0 min 0 UV-I 0 W/m 22,5 km/h (4 Bft)
15.03.2010 19:40 5,4 C 90 % 1016,5 hPa 0,3 mm 9,7 km/h (2 Bft) W 270 0 min 0 UV-I 0 W/m 24,1 km/h (4 Bft)
15.03.2010 19:50 5,4 C 91 % 1016,4 hPa 0,0 mm 6,4 km/h (2 Bft) W 270 0 min 0 UV-I 0 W/m 22,5 km/h (4 Bft)
15.03.2010 20:00 5,3 C 91 % 1016,5 hPa 0,0 mm 11,3 km/h (2 Bft) W 270 0 min 0 UV-I 0 W/m 29,0 km/h (5 Bft)
15.03.2010 20:10 5,2 C 90 % 1016,5 hPa 0,0 mm 8,0 km/h (2 Bft) W 270 0 min 0 UV-I 0 W/m 25,7 km/h (4 Bft)
15.03.2010 20:20 5,2 C 90 % 1016,6 hPa 0,0 mm 11,3 km/h (2 Bft) W 270 0 min 0 UV-I 0 W/m 33,8 km/h (5 Bft)
15.03.2010 20:30 5,2 C 90 % 1016,5 hPa 0,0 mm 8,0 km/h (2 Bft) W 270 0 min 0 UV-I 0 W/m 19,3 km/h (3 Bft)
15.03.2010 20:40 5,2 C 90 % 1016,6 hPa 0,3 mm 9,7 km/h (2 Bft) W 270 0 min 0 UV-I 0 W/m 24,1 km/h (4 Bft)
15.03.2010 20:50 5,1 C 90 % 1016,5 hPa 0,0 mm 8,0 km/h (2 Bft) W 270 0 min 0 UV-I 0 W/m 20,9 km/h (4 Bft)
15.03.2010 21:00 5,1 C 90 % 1016,5 hPa 0,0 mm 8,0 km/h (2 Bft) W 270 0 min 0 UV-I 0 W/m 17,7 km/h (3 Bft)
15.03.2010 21:10 5,1 C 90 % 1016,5 hPa 0,0 mm 6,4 km/h (2 Bft) W 270 0 min 0 UV-I 0 W/m 20,9 km/h (4 Bft)
15.03.2010 21:20 5,1 C 90 % 1016,5 hPa 0,0 mm 8,0 km/h (2 Bft) W-SW 247 0 min 0 UV-I 0 W/m 22,5 km/h (4 Bft)
15.03.2010 21:30 5,0 C 90 % 1016,4 hPa 0,0 mm 6,4 km/h (2 Bft) W 270 0 min 0 UV-I 0 W/m 17,7 km/h (3 Bft)
15.03.2010 21:40 5,0 C 90 % 1016,5 hPa 0,0 mm 8,0 km/h (2 Bft) W 270 0 min 0 UV-I 0 W/m 25,7 km/h (4 Bft)
15.03.2010 21:50 4,9 C 91 % 1016,5 hPa 0,3 mm 8,0 km/h (2 Bft) W 270 0 min 0 UV-I 0 W/m 19,3 km/h (3 Bft)
15.03.2010 22:00 4,9 C 90 % 1016,6 hPa 0,3 mm 11,3 km/h (2 Bft) W 270 0 min 0 UV-I 0 W/m 24,1 km/h (4 Bft)
15.03.2010 22:10 4,7 C 90 % 1016,6 hPa 0,3 mm 8,0 km/h (2 Bft) W 270 0 min 0 UV-I 0 W/m 27,4 km/h (4 Bft)
15.03.2010 22:20 4,6 C 90 % 1016,6 hPa 0,3 mm 8,0 km/h (2 Bft) W 270 0 min 0 UV-I 0 W/m 32,2 km/h (5 Bft)
15.03.2010 22:30 4,6 C 90 % 1016,7 hPa 0,0 mm 6,4 km/h (2 Bft) W 270 0 min 0 UV-I 0 W/m 19,3 km/h (3 Bft)
15.03.2010 22:40 4,6 C 90 % 1016,7 hPa 0,3 mm 6,4 km/h (2 Bft) W 270 0 min 0 UV-I 0 W/m 24,1 km/h (4 Bft)
15.03.2010 22:50 4,6 C 90 % 1016,7 hPa 0,0 mm 8,0 km/h (2 Bft) W 270 0 min 0 UV-I 0 W/m 22,5 km/h (4 Bft)
15.03.2010 23:00 4,5 C 91 % 1016,7 hPa 0,0 mm 6,4 km/h (2 Bft) W 270 0 min 0 UV-I 0 W/m 20,9 km/h (4 Bft)
15.03.2010 23:10 4,5 C 91 % 1016,7 hPa 0,0 mm 8,0 km/h (2 Bft) W 270 0 min 0 UV-I 0 W/m 19,3 km/h (3 Bft)
15.03.2010 23:20 4,4 C 91 % 1016,8 hPa 0,0 mm 8,0 km/h (2 Bft) W 270 0 min 0 UV-I 0 W/m 19,3 km/h (3 Bft)
15.03.2010 23:30 4,4 C 91 % 1016,9 hPa 0,0 mm 6,4 km/h (2 Bft) W 270 0 min 0 UV-I 0 W/m 17,7 km/h (3 Bft)
15.03.2010 23:40 4,4 C 91 % 1017,0 hPa 0,0 mm 8,0 km/h (2 Bft) W 270 0 min 0 UV-I 0 W/m 24,1 km/h (4 Bft)
15.03.2010 23:50 4,5 C 91 % 1017,0 hPa 0,0 mm 8,0 km/h (2 Bft) W 270 0 min 0 UV-I 0 W/m 22,5 km/h (4 Bft)
_ Min-Zeit 02:20 10:20 17:50 - 00:30 - - - - - 08:00
Minimum _ 1,7 C 70 % 1016,0 hPa - 1,6 km/h (1 Bft) - - - - - 4,8 km/h (1 Bft)
_ Max-Zeit 16:00 14:50 08:20 06:10 16:00 - - 07:50 10:10 10:10 15:30
Maximum _ 6,4 C 91 % 1021,7 hPa 0,3 mm 14,3 km/h
W-SW (3 Bft)
- - 10 min 2 UV-I 568 W/m 35,4 km/h
W-SW (5 Bft)
Durchschnitt _ 4,0 C 85 % 1019,2 hPa #5,8 mm 6,8 km/h (2 Bft) W - #2:20 h 1 UV-I 158 W/m 19,5 km/h (3 Bft)